createdAt,value
2023-03-04T00:03:51.843Z,21.2
2023-03-04T00:09:44.139Z,21.2
2023-03-04T00:21:17.627Z,21.2
2023-03-04T00:26:54.688Z,21.2
2023-03-04T00:32:47.841Z,21.2
2023-03-04T00:38:40.351Z,21.2
2023-03-04T00:44:17.773Z,21.2
2023-03-04T00:49:39.961Z,21.2
2023-03-04T00:55:31.514Z,21.2
2023-03-04T01:01:08.627Z,21.2
2023-03-04T01:23:22.692Z,21.2
2023-03-04T01:28:59.624Z,21.2
2023-03-04T01:34:37.344Z,21.2
2023-03-04T01:39:58.762Z,21.2
2023-03-04T03:02:03.430Z,21.2
2023-03-04T04:53:06.923Z,21.1
2023-03-04T05:15:51.286Z,21.1
2023-03-04T05:49:49.918Z,21.1
2023-03-04T05:55:42.918Z,21.1
2023-03-04T06:01:35.352Z,21.1
2023-03-04T06:13:05.457Z,21.1
2023-03-04T06:18:58.336Z,21.1
2023-03-04T06:24:50.466Z,21.1
2023-03-04T06:36:22.966Z,21.1
2023-03-04T06:42:16.445Z,21.1
2023-03-04T06:53:47.108Z,21.1
2023-03-04T06:59:38.918Z,21.1
2023-03-04T07:05:31.608Z,21.1
2023-03-04T07:11:23.449Z,21.1
2023-03-04T07:17:16.575Z,21.1
2023-03-04T07:23:10.335Z,21.1
2023-03-04T07:29:01.911Z,21.1
2023-03-04T07:34:54.746Z,21.1
2023-03-04T07:40:47.698Z,21.1
2023-03-04T07:46:40.368Z,21.1
2023-03-04T07:52:35.865Z,21.1
2023-03-04T07:58:28.664Z,21.1
2023-03-04T08:04:20.753Z,21.1
2023-03-04T08:10:12.895Z,21.1
2023-03-04T08:16:06.238Z,21.1
2023-03-04T08:21:59.779Z,21.1
2023-03-04T08:27:37.726Z,21.1
2023-03-04T08:33:17.291Z,21.1
2023-03-04T08:39:13.136Z,21.1
2023-03-04T08:44:50.596Z,21.1
2023-03-04T08:50:44.178Z,21
2023-03-04T08:56:37.040Z,21.1
2023-03-04T09:02:29.437Z,21.1
2023-03-04T09:08:22.463Z,21.1
2023-03-04T09:14:14.548Z,21.1
2023-03-04T09:20:18.449Z,21.1
2023-03-04T09:26:10.770Z,21
2023-03-04T09:32:03.697Z,21.1
2023-03-04T09:37:56.402Z,21.1
2023-03-04T09:43:33.926Z,21.1
2023-03-04T09:49:28.801Z,21.1
2023-03-04T09:55:25.902Z,21.1
2023-03-04T10:01:20.025Z,21.1
2023-03-04T10:07:12.506Z,21.1
2023-03-04T10:13:04.703Z,21
2023-03-04T10:18:58.583Z,21.1
2023-03-04T10:24:53.796Z,21
2023-03-04T10:30:31.458Z,21.1
2023-03-04T10:36:24.880Z,21
2023-03-04T10:42:17.045Z,21
2023-03-04T10:48:10.784Z,21
2023-03-04T10:54:03.008Z,21
2023-03-04T10:59:42.230Z,21
2023-03-04T11:05:35.251Z,21.1
2023-03-04T11:11:37.963Z,21.1
2023-03-04T11:17:29.757Z,21
2023-03-04T11:23:26.233Z,21
2023-03-04T11:29:31.000Z,21.1
2023-03-04T11:35:24.672Z,21
2023-03-04T11:41:18.100Z,21
2023-03-04T11:47:28.130Z,21.1
2023-03-04T11:53:20.540Z,21
2023-03-04T11:59:14.374Z,21
2023-03-04T12:05:08.550Z,21
2023-03-04T12:10:46.005Z,21
2023-03-04T12:16:40.952Z,21
2023-03-04T12:22:33.296Z,21
2023-03-04T12:28:11.629Z,21.1
2023-03-04T12:34:08.722Z,21
2023-03-04T12:39:47.383Z,21
2023-03-04T12:45:23.678Z,21
2023-03-04T12:51:18.956Z,21
2023-03-04T12:57:11.927Z,21
2023-03-04T13:02:49.878Z,21
2023-03-04T13:08:28.397Z,21
2023-03-04T13:14:23.657Z,21
2023-03-04T13:20:02.929Z,21.1
2023-03-04T13:25:57.223Z,21
2023-03-04T13:31:50.811Z,21
2023-03-04T13:37:45.619Z,21
2023-03-04T13:43:26.197Z,21
2023-03-04T13:49:20.106Z,21
2023-03-04T13:55:25.985Z,21
2023-03-04T14:01:22.500Z,21
2023-03-04T14:07:16.455Z,21
2023-03-04T14:12:54.010Z,21
2023-03-04T14:18:46.692Z,20.9
2023-03-04T14:24:40.529Z,21
2023-03-04T14:30:17.405Z,21
2023-03-04T14:36:20.991Z,21
2023-03-04T14:42:12.939Z,21
2023-03-04T14:48:17.679Z,21
2023-03-04T14:54:10.091Z,21
2023-03-04T15:00:02.099Z,21
2023-03-04T15:05:55.711Z,21
2023-03-04T15:11:49.003Z,21
2023-03-04T15:17:42.577Z,21
2023-03-04T15:23:19.097Z,21
2023-03-04T15:29:13.577Z,21
2023-03-04T15:35:06.421Z,21
2023-03-04T15:40:57.943Z,21
2023-03-04T15:46:38.570Z,21
2023-03-04T15:58:09.722Z,21
2023-03-04T16:04:02.172Z,21
2023-03-04T16:09:54.772Z,20.9
2023-03-04T16:15:47.218Z,21
2023-03-04T16:21:39.569Z,20.9
2023-03-04T16:27:32.093Z,21
2023-03-04T16:33:11.802Z,20.9
2023-03-04T16:39:04.525Z,20.9
2023-03-04T16:44:41.960Z,21
2023-03-04T16:50:36.262Z,21
2023-03-04T16:56:29.533Z,20.9
2023-03-04T17:02:22.212Z,20.9
2023-03-04T17:08:16.936Z,20.9
2023-03-04T17:13:54.375Z,21
2023-03-04T17:19:31.450Z,20.9
2023-03-04T17:25:23.585Z,20.9
2023-03-04T17:31:00.366Z,20.9
2023-03-04T17:36:53.701Z,20.9
2023-03-04T17:42:30.463Z,20.9
2023-03-04T17:53:59.520Z,21
2023-03-04T18:05:28.887Z,21
2023-03-04T18:11:05.843Z,21
2023-03-04T18:16:57.996Z,21
2023-03-04T18:22:19.776Z,21
2023-03-04T18:27:56.801Z,21
2023-03-04T18:33:45.679Z,21
2023-03-04T18:39:23.312Z,21
2023-03-04T18:45:16.046Z,21
2023-03-04T18:51:08.931Z,21.1
2023-03-04T18:57:01.621Z,21.1
2023-03-04T19:02:54.325Z,21.1
2023-03-04T19:08:46.219Z,21.1
2023-03-04T19:14:25.092Z,21.1
2023-03-04T19:25:38.665Z,21.1
2023-03-04T19:31:16.261Z,21.1
2023-03-04T19:47:52.574Z,21.2
2023-03-04T19:53:29.388Z,21.2
2023-03-04T19:59:06.733Z,21.2
2023-03-04T20:04:44.339Z,21.2
2023-03-04T20:10:06.090Z,21.3
2023-03-04T20:15:23.652Z,21.3
2023-03-04T20:21:00.959Z,21.3
2023-03-04T20:26:23.153Z,21.3
2023-03-04T20:32:00.804Z,21.3
2023-03-04T20:37:38.630Z,21.4
2023-03-04T20:43:27.570Z,21.3
2023-03-04T20:49:19.502Z,21.3
2023-03-04T20:54:56.047Z,21.4
2023-03-04T20:59:47.295Z,21.4
2023-03-04T21:05:39.838Z,21.4
2023-03-04T21:11:32.442Z,21.4
2023-03-04T21:17:25.545Z,21.4
2023-03-04T21:23:18.471Z,21.4
2023-03-04T21:29:14.529Z,21.4
2023-03-04T21:35:06.604Z,21.5
2023-03-04T21:40:44.093Z,21.5
2023-03-04T21:46:19.758Z,21.5
2023-03-04T21:52:14.860Z,21.6
2023-03-04T21:57:36.521Z,21.6
2023-03-04T22:03:15.167Z,21.6
2023-03-04T22:09:06.984Z,21.6
2023-03-04T22:52:30.269Z,21.8
2023-03-04T22:58:07.593Z,21.8
2023-03-04T23:04:00.589Z,21.8
2023-03-04T23:09:52.101Z,21.8
2023-03-04T23:15:45.655Z,21.8
2023-03-04T23:21:37.896Z,21.8
2023-03-04T23:27:15.208Z,21.8
2023-03-04T23:33:09.257Z,21.9
2023-03-04T23:39:01.387Z,21.8
2023-03-04T23:44:53.472Z,21.9
2023-03-04T23:50:47.049Z,21.9
2023-03-04T23:56:24.156Z,21.9
